Time;durP1;ratioP1;P1;durP2;ratioP2;P2;SDS_P1;SDS_P2;PMS_P1;PMS_P2;Temp;Humidity;BMP_temperature;BMP_pressure;BME280_temperature;BME280_humidity;BME280_pressure;Samples;Min_cycle;Max_cycle;Signal;HPM_P1;HPM_P2
2022/05/25 00:00:32;;;;;;;6.90;6.17;;;;;;;11.08;65.81;100253.66;1701126;82;21044;-69
2022/05/25 00:02:59;;;;;;;9.47;6.63;;;;;;;11.05;65.96;100251.89;1693997;83;21060;-68
2022/05/25 00:05:26;;;;;;;7.15;5.95;;;;;;;11.02;66.04;100258.45;1689552;83;21114;-71
2022/05/25 00:07:52;;;;;;;6.67;6.00;;;;;;;11.02;66.21;100258.93;1681461;83;21084;-68
2022/05/25 00:10:18;;;;;;;11.45;6.05;;;;;;;11.01;66.31;100258.11;1699983;83;21182;-69
2022/05/25 00:12:46;;;;;;;6.30;5.70;;;;;;;11.03;66.37;100261.41;1699657;83;21021;-70
2022/05/25 00:15:15;;;;;;;11.83;6.00;;;;;;;11.03;66.47;100262.74;1695206;84;21699;-68
2022/05/25 00:17:42;;;;;;;7.10;5.70;;;;;;;11.03;66.62;100262.74;1692321;83;21076;-69
2022/05/25 00:20:12;;;;;;;8.87;6.07;;;;;;;11.01;66.89;100261.30;1699288;83;20997;-69
2022/05/25 00:22:50;;;;;;;11.10;6.13;;;;;;;10.98;66.99;100261.19;1692097;83;21053;-72
2022/05/25 00:25:24;;;;;;;7.40;5.25;;;;;;;10.97;67.04;100260.04;1699554;83;21085;-69
2022/05/25 00:27:50;;;;;;;9.07;6.67;;;;;;;10.96;67.16;100264.52;1698873;83;21132;-68
2022/05/25 00:30:17;;;;;;;;;;;;;;;10.94;67.26;100265.75;1701506;83;21041;-69
2022/05/25 00:32:45;;;;;;;9.28;6.15;;;;;;;10.91;67.33;100270.45;1699390;83;20121;-68
2022/05/25 00:35:16;;;;;;;11.90;6.47;;;;;;;10.84;67.48;100270.89;1686042;84;20993;-69
2022/05/25 00:37:43;;;;;;;7.17;5.47;;;;;;;10.80;67.70;100262.97;1699263;84;21028;-68
2022/05/25 00:40:16;;;;;;;8.17;6.63;;;;;;;10.78;67.93;100263.67;1683427;83;21050;-70
2022/05/25 00:42:43;;;;;;;9.27;6.00;;;;;;;10.76;67.92;100265.70;1698093;83;21128;-68
2022/05/25 00:45:12;;;;;;;9.55;5.78;;;;;;;10.75;68.18;100270.70;1701625;83;21003;-70
2022/05/25 00:47:44;;;;;;;8.67;6.63;;;;;;;10.73;68.26;100263.93;1700798;82;20984;-70
2022/05/25 00:50:15;;;;;;;7.80;6.50;;;;;;;10.70;68.30;100265.14;1700870;84;21068;-68
2022/05/25 00:52:46;;;;;;;6.30;5.70;;;;;;;10.67;68.47;100262.33;1718046;83;21010;-68
2022/05/25 00:55:17;;;;;;;6.00;5.27;;;;;;;10.64;68.61;100264.06;1708918;82;21140;-69
2022/05/25 00:57:48;;;;;;;9.03;6.37;;;;;;;10.62;68.74;100267.41;1700384;83;20976;-68
2022/05/25 01:00:19;;;;;;;6.60;5.23;;;;;;;10.58;68.94;100274.13;1700906;83;21000;-67
2022/05/25 01:03:02;;;;;;;10.00;6.57;;;;;;;10.55;69.08;100274.53;1701294;83;21063;-68
2022/05/25 01:05:32;;;;;;;6.83;6.13;;;;;;;10.52;69.26;100277.56;1700073;83;21131;-68
2022/05/25 01:08:40;;;;;;;6.43;5.83;;;;;;;10.50;69.39;100279.59;1683111;83;21031;-70
2022/05/25 01:11:50;;;;;;;6.75;6.00;;;;;;;10.48;69.50;100276.30;1707913;83;21018;-69
2022/05/25 01:14:58;;;;;;;12.40;6.90;;;;;;;10.42;69.64;100272.55;1705536;83;21047;-70
2022/05/25 01:17:58;;;;;;;7.67;5.72;;;;;;;10.37;69.92;100283.45;1697500;84;21085;-68
2022/05/25 01:20:48;;;;;;;7.27;6.00;;;;;;;10.33;70.28;100279.82;1700406;83;21033;-68
2022/05/25 01:23:32;;;;;;;6.70;6.00;;;;;;;10.31;70.39;100278.38;1695327;83;20990;-69
2022/05/25 01:29:26;;;;;;;8.83;6.37;;;;;;;10.37;70.60;100282.94;1797611;78;22880;-68
2022/05/25 01:32:03;;;;;;;10.43;7.07;;;;;;;10.38;70.61;100290.41;1769398;80;21175;-68
2022/05/25 01:34:57;;;;;;;8.27;6.33;;;;;;;10.38;70.73;100293.93;1770570;80;21022;-70
2022/05/25 01:37:43;;;;;;;9.63;6.97;;;;;;;10.40;70.82;100289.23;1754845;81;21091;-68
2022/05/25 01:40:40;;;;;;;10.07;5.87;;;;;;;10.43;70.84;100290.69;1735048;81;21605;-69
2022/05/25 01:43:17;;;;;;;11.83;6.50;;;;;;;10.46;70.83;100295.65;1741980;80;21164;-71
2022/05/25 01:46:10;;;;;;;9.97;6.53;;;;;;;10.46;70.79;100291.14;1738649;80;21011;-73
2022/05/25 01:48:40;;;;;;;7.13;6.43;;;;;;;10.50;70.69;100298.25;1698935;83;21529;-68
2022/05/25 01:51:15;;;;;;;10.23;5.67;;;;;;;10.52;70.67;100297.55;1684073;84;21506;-70
2022/05/25 01:53:46;;;;;;;13.23;6.50;;;;;;;10.58;70.54;100300.78;1673031;84;21533;-72
2022/05/25 01:56:18;;;;;;;11.07;5.83;;;;;;;10.63;70.59;100302.39;1665415;85;21117;-68
2022/05/25 01:58:51;;;;;;;8.03;6.03;;;;;;;10.64;70.58;100293.88;1653466;84;21062;-68
2022/05/25 02:01:17;;;;;;;7.83;6.03;;;;;;;10.65;70.63;100298.20;1661092;84;21204;-68
2022/05/25 02:07:17;;;;;;;7.63;5.70;;;;;;;10.64;70.44;100296.54;1641610;85;21588;-71
2022/05/25 02:09:59;;;;;;;6.20;5.63;;;;;;;10.66;70.50;100305.17;1633685;85;21147;-68
2022/05/25 02:12:53;;;;;;;8.00;5.70;;;;;;;10.64;70.53;100309.38;1641785;85;21089;-71
2022/05/25 02:15:36;;;;;;;6.53;5.57;;;;;;;10.65;70.59;100307.53;1646425;85;21058;-71
2022/05/25 02:18:29;;;;;;;10.20;6.10;;;;;;;10.62;70.56;100312.72;1652802;85;21042;-70
2022/05/25 02:21:11;;;;;;;12.23;6.33;;;;;;;10.60;70.56;100309.94;1619418;86;21090;-69
2022/05/25 02:23:52;;;;;;;9.40;5.90;;;;;;;10.56;70.66;100310.81;1660588;85;21118;-68
2022/05/25 02:26:35;;;;;;;7.97;6.37;;;;;;;10.56;70.98;100315.33;1650300;85;21054;-69
2022/05/25 02:29:28;;;;;;;7.50;6.13;;;;;;;10.60;71.08;100320.59;1658125;85;21078;-68
2022/05/25 02:32:11;;;;;;;8.03;6.10;;;;;;;10.64;71.00;100316.05;1659232;85;21101;-68
2022/05/25 02:34:43;;;;;;;6.80;6.13;;;;;;;10.65;71.00;100319.53;1645752;85;21080;-73
2022/05/25 02:37:10;;;;;;;6.53;5.80;;;;;;;10.65;71.13;100325.67;1660955;85;21029;-70
2022/05/25 02:39:38;;;;;;;6.47;5.80;;;;;;;10.69;71.25;100326.94;1641996;86;21019;-69
2022/05/25 02:42:12;;;;;;;7.08;5.87;;;;;;;10.75;71.37;100324.55;1660745;85;21106;-69
2022/05/25 02:44:39;;;;;;;6.93;6.27;;;;;;;10.84;71.42;100327.41;1660625;86;21079;-71
2022/05/25 02:47:05;;;;;;;6.78;6.03;;;;;;;10.91;71.30;100338.45;1647840;86;21042;-68
2022/05/25 02:49:32;;;;;;;10.27;6.07;;;;;;;10.99;71.25;100341.50;1659833;86;21071;-70
2022/05/25 02:51:58;;;;;;;9.88;7.85;;;;;;;11.18;71.57;100333.35;1660519;85;21049;-69
2022/05/25 02:54:24;;;;;;;9.40;7.20;;;;;;;11.69;71.68;100340.30;1631534;88;21118;-69
2022/05/25 02:56:50;;;;;;;7.53;6.72;;;;;;;12.44;69.71;100341.32;1647718;86;21053;-69
2022/05/25 02:59:17;;;;;;;9.63;6.87;;;;;;;13.25;67.05;100335.61;1647616;86;21117;-69
2022/05/25 03:01:43;;;;;;;9.58;6.72;;;;;;;14.03;64.40;100333.55;1659504;86;21011;-70
2022/05/25 03:04:09;;;;;;;11.38;6.20;;;;;;;14.81;61.92;100321.87;1660485;85;21573;-70
2022/05/25 03:06:36;;;;;;;7.95;6.67;;;;;;;15.51;59.54;100318.22;1647692;86;21083;-73
2022/05/25 03:09:03;;;;;;;10.48;7.00;;;;;;;16.17;57.12;100323.95;1647448;86;21081;-69
2022/05/25 03:11:31;;;;;;;9.95;6.00;;;;;;;16.78;55.10;100324.25;1644373;86;21062;-72
2022/05/25 03:13:57;;;;;;;7.40;6.50;;;;;;;17.37;53.00;100327.64;1657539;86;21173;-70
2022/05/25 03:16:23;;;;;;;8.18;6.83;;;;;;;17.90;50.61;100330.20;1659845;86;21204;-69
2022/05/25 03:18:53;;;;;;;6.95;6.22;;;;;;;18.45;49.33;100322.67;1659533;86;21066;-69
2022/05/25 03:21:20;;;;;;;5.92;5.12;;;;;;;18.98;48.29;100322.02;1632759;86;21026;-70
2022/05/25 03:23:48;;;;;;;9.73;5.92;;;;;;;19.49;46.81;100323.36;1659584;85;21049;-70
2022/05/25 03:26:15;;;;;;;7.42;6.12;;;;;;;19.96;45.81;100325.67;1670455;86;21058;-71
2022/05/25 03:28:41;;;;;;;8.40;7.35;;;;;;;20.36;44.81;100327.22;1653476;85;21143;-71
2022/05/25 03:31:07;;;;;;;;;;;;;;;20.73;43.17;100320.61;1652810;86;21050;-70
2022/05/25 03:33:36;;;;;;;7.60;6.80;;;;;;;21.10;41.93;100325.28;1651060;85;20174;-72
2022/05/25 03:36:04;;;;;;;9.55;7.87;;;;;;;21.39;41.01;100323.59;1653497;85;21123;-70
2022/05/25 03:38:30;;;;;;;10.00;8.55;;;;;;;21.75;39.92;100321.13;1660996;85;21048;-70
2022/05/25 03:40:59;;;;;;;9.83;8.55;;;;;;;22.07;39.25;100322.91;1653634;85;21094;-70
2022/05/25 03:43:30;;;;;;;10.82;7.65;;;;;;;22.32;38.54;100325.77;1653362;85;21048;-70
2022/05/25 03:45:57;;;;;;;9.25;7.75;;;;;;;22.61;37.76;100328.00;1653319;84;21597;-70
2022/05/25 03:48:23;;;;;;;10.85;7.28;;;;;;;22.91;37.50;100315.54;1669628;85;22299;-69
2022/05/25 03:50:50;;;;;;;9.28;6.87;;;;;;;23.21;37.10;100318.83;1651538;87;21119;-69
2022/05/25 03:53:16;;;;;;;12.23;8.50;;;;;;;23.48;36.64;100314.43;1652297;87;21077;-70
2022/05/25 03:55:43;;;;;;;13.70;8.45;;;;;;;23.71;35.91;100314.92;1666853;85;21063;-72
2022/05/25 03:58:10;;;;;;;19.62;9.25;;;;;;;23.93;35.24;100323.34;1659931;86;21077;-70
2022/05/25 04:00:37;;;;;;;9.78;8.53;;;;;;;24.13;34.77;100322.42;1651256;85;21069;-71
2022/05/25 04:03:04;;;;;;;11.08;8.38;;;;;;;24.35;34.44;100327.50;1668287;85;21062;-70
2022/05/25 04:05:33;;;;;;;10.95;8.00;;;;;;;24.60;33.87;100331.48;1656347;85;21081;-69
2022/05/25 04:08:00;;;;;;;11.08;7.78;;;;;;;24.81;33.38;100331.34;1667644;85;21557;-70
2022/05/25 04:10:29;;;;;;;7.35;6.65;;;;;;;25.02;33.19;100337.45;1673639;85;21160;-71
2022/05/25 04:12:55;;;;;;;5.65;5.03;;;;;;;25.21;32.28;100334.84;1686997;84;21028;-69
2022/05/25 04:15:25;;;;;;;5.55;5.05;;;;;;;25.38;29.84;100339.34;1700691;84;21118;-71
2022/05/25 04:17:52;;;;;;;4.92;3.75;;;;;;;25.34;29.42;100333.39;1690917;84;21232;-71
2022/05/25 04:20:20;;;;;;;3.95;3.62;;;;;;;25.38;28.38;100347.53;1676864;84;21592;-70
2022/05/25 04:22:47;;;;;;;3.50;1.98;;;;;;;25.47;28.70;100346.89;1683378;84;21046;-70
2022/05/25 04:25:17;;;;;;;2.55;1.50;;;;;;;25.66;26.66;100351.09;1657951;85;21063;-72
2022/05/25 04:27:46;;;;;;;3.70;2.00;;;;;;;25.57;26.33;100349.54;1672404;85;21152;-72
2022/05/25 04:30:16;;;;;;;3.27;2.10;;;;;;;25.34;26.09;100350.57;1666990;85;21054;-71
2022/05/25 04:32:43;;;;;;;3.33;2.08;;;;;;;25.22;27.43;100356.38;1670018;85;21054;-71
2022/05/25 04:35:11;;;;;;;4.22;2.37;;;;;;;25.13;26.47;100360.81;1647556;85;21528;-71
2022/05/25 04:37:52;;;;;;;7.12;2.37;;;;;;;24.89;26.66;100358.55;1668440;86;21053;-70
2022/05/25 04:40:27;;;;;;;2.87;2.17;;;;;;;24.82;27.25;100360.22;1662052;86;21034;-71
2022/05/25 04:42:56;;;;;;;1.98;1.80;;;;;;;24.70;27.51;100359.77;1672005;85;21160;-71
2022/05/25 04:45:25;;;;;;;2.37;2.12;;;;;;;24.82;27.49;100352.84;1674671;86;21057;-70
2022/05/25 04:47:59;;;;;;;7.47;1.52;;;;;;;24.89;27.35;100354.46;1657000;86;21080;-69
2022/05/25 04:50:30;;;;;;;2.95;1.72;;;;;;;24.83;26.94;100355.05;1656925;86;21491;-69
2022/05/25 04:52:59;;;;;;;3.95;1.62;;;;;;;24.67;27.17;100355.12;1652695;86;21518;-70
2022/05/25 04:58:30;;;;;;;3.95;1.77;;;;;;;24.83;27.76;100364.03;1628624;87;21503;-72
2022/05/25 05:00:56;;;;;;;3.30;1.70;;;;;;;24.73;27.43;100359.98;1652692;86;21620;-72
2022/05/25 05:03:26;;;;;;;1.10;1.10;;;;;;;24.53;28.74;100362.30;1663361;86;21108;-70
2022/05/25 05:05:55;;;;;;;2.05;1.60;;;;;;;24.54;26.91;100362.55;1669189;85;21078;-71
2022/05/25 05:08:23;;;;;;;1.65;1.50;;;;;;;24.59;26.51;100362.53;1640499;87;21031;-72
2022/05/25 05:10:51;;;;;;;3.20;1.02;;;;;;;24.70;26.88;100360.58;1662072;86;21534;-71
2022/05/25 05:13:19;;;;;;;2.95;1.40;;;;;;;24.87;25.28;100360.19;1683032;85;21093;-74
2022/05/25 05:15:50;;;;;;;2.47;0.78;;;;;;;24.79;25.79;100358.05;1671504;86;21344;-75
2022/05/25 05:18:18;;;;;;;7.40;0.90;;;;;;;24.86;24.67;100364.00;1686704;84;21121;-68
2022/05/25 05:20:49;;;;;;;5.33;1.47;;;;;;;24.98;24.78;100361.75;1652527;85;21038;-72
2022/05/25 05:23:15;;;;;;;1.45;1.10;;;;;;;25.18;24.41;100364.04;1678794;85;21802;-70
2022/05/25 05:25:41;;;;;;;2.67;0.82;;;;;;;25.28;24.36;100363.16;1682219;84;21049;-71
2022/05/25 05:28:16;;;;;;;2.47;0.88;;;;;;;25.18;23.72;100366.77;1681684;84;21179;-70
2022/05/25 05:30:53;;;;;;;2.75;1.07;;;;;;;25.01;24.56;100363.08;1666940;85;21023;-71
2022/05/25 05:33:21;;;;;;;2.90;1.22;;;;;;;25.16;24.10;100367.61;1655356;86;22167;-70
2022/05/25 05:35:55;;;;;;;3.30;0.62;;;;;;;25.38;23.20;100364.45;1671928;85;20982;-70
2022/05/25 05:38:22;;;;;;;2.05;0.70;;;;;;;25.37;22.92;100367.74;1645949;86;21139;-72
2022/05/25 05:40:49;;;;;;;0.78;0.55;;;;;;;25.19;22.29;100373.86;1676383;84;21106;-71
2022/05/25 05:43:15;;;;;;;1.05;0.50;;;;;;;25.11;22.94;100378.55;1676013;84;21112;-71
2022/05/25 05:45:44;;;;;;;2.83;1.12;;;;;;;25.01;22.92;100373.43;1655899;85;21050;-71
2022/05/25 05:48:26;;;;;;;4.55;1.20;;;;;;;24.82;23.13;100371.12;1690955;84;21053;-72
2022/05/25 05:50:54;;;;;;;4.10;1.00;;;;;;;24.91;23.27;100370.79;1640881;86;21043;-71
2022/05/25 05:53:24;;;;;;;4.28;0.50;;;;;;;24.94;22.76;100374.33;1661128;85;21003;-70
2022/05/25 05:55:50;;;;;;;2.62;1.10;;;;;;;24.81;22.71;100373.59;1674593;83;21058;-69
2022/05/25 05:58:18;;;;;;;4.20;1.02;;;;;;;24.76;23.45;100374.42;1641328;87;21080;-72
2022/05/25 06:00:45;;;;;;;2.83;0.98;;;;;;;24.90;22.71;100373.23;1663158;86;21018;-71
2022/05/25 06:03:14;;;;;;;0.98;0.50;;;;;;;24.96;22.67;100367.20;1645144;87;21035;-70
2022/05/25 06:05:44;;;;;;;2.60;1.00;;;;;;;24.98;22.18;100378.11;1630118;88;21057;-70
2022/05/25 06:08:15;;;;;;;0.95;0.75;;;;;;;24.84;22.32;100371.65;1631133;88;21126;-70
2022/05/25 06:10:42;;;;;;;1.37;0.78;;;;;;;24.64;22.72;100372.05;1630214;88;21128;-72
2022/05/25 06:13:09;;;;;;;3.72;0.98;;;;;;;24.75;22.85;100370.61;1640495;86;21033;-72
2022/05/25 06:21:09;;;;;;;4.65;1.12;;;;;;;24.66;23.21;100377.23;1631574;86;21064;-70
2022/05/25 06:23:36;;;;;;;2.00;0.82;;;;;;;24.76;23.02;100379.08;1658896;86;21089;-75
2022/05/25 06:26:03;;;;;;;1.42;0.70;;;;;;;24.80;23.05;100378.77;1670045;86;21034;-72
2022/05/25 06:28:29;;;;;;;5.15;0.60;;;;;;;24.94;22.79;100383.86;1674026;85;21576;-71
2022/05/25 06:30:56;;;;;;;6.53;0.60;;;;;;;25.09;22.85;100385.67;1685757;85;21562;-73
2022/05/25 06:33:22;;;;;;;2.55;0.55;;;;;;;25.20;22.12;100380.41;1660530;85;21085;-72
2022/05/25 06:35:50;;;;;;;1.12;0.47;;;;;;;25.24;22.86;100380.65;1690246;84;21052;-70
2022/05/25 06:38:16;;;;;;;3.40;0.50;;;;;;;25.41;22.03;100372.88;1694668;84;21087;-72
2022/05/25 06:40:43;;;;;;;2.33;1.22;;;;;;;25.43;22.60;100376.13;1697206;84;21091;-71
2022/05/25 06:43:11;;;;;;;3.77;0.98;;;;;;;25.42;21.58;100378.59;1693597;84;21040;-74
2022/05/25 06:45:38;;;;;;;5.37;0.50;;;;;;;25.19;22.39;100391.03;1691891;84;21071;-71
2022/05/25 06:48:07;;;;;;;1.42;0.45;;;;;;;25.19;22.40;100384.77;1686779;85;21024;-70
2022/05/25 06:50:34;;;;;;;4.28;0.90;;;;;;;25.23;22.04;100391.31;1696164;84;21113;-72
2022/05/25 06:53:00;;;;;;;1.70;0.30;;;;;;;25.21;22.10;100392.12;1692379;84;20996;-71
2022/05/25 06:55:27;;;;;;;2.80;0.88;;;;;;;25.13;21.88;100394.91;1691610;84;21053;-72
2022/05/25 06:57:53;;;;;;;0.98;0.57;;;;;;;25.07;22.05;100387.84;1701429;84;20986;-71
2022/05/25 07:00:19;;;;;;;2.17;1.00;;;;;;;24.92;21.95;100384.70;1688527;84;21041;-73
2022/05/25 07:02:46;;;;;;;1.42;0.68;;;;;;;24.76;23.14;100385.89;1671988;86;21566;-72
2022/05/25 07:05:12;;;;;;;5.47;0.75;;;;;;;24.77;22.55;100385.61;1660609;85;21533;-74
2022/05/25 07:07:39;;;;;;;0.57;0.53;;;;;;;24.81;22.35;100388.59;1636330;86;21123;-73
2022/05/25 07:10:05;;;;;;;1.05;0.90;;;;;;;24.81;22.54;100390.76;1661691;86;21073;-76
2022/05/25 07:12:33;;;;;;;2.52;0.70;;;;;;;24.74;22.39;100389.45;1673605;85;21022;-71
2022/05/25 07:15:03;;;;;;;1.90;0.42;;;;;;;24.75;22.79;100390.53;1680973;85;21127;-72
2022/05/25 07:17:30;;;;;;;0.65;0.33;;;;;;;24.90;21.79;100393.69;1663503;86;21068;-70
2022/05/25 07:19:57;;;;;;;5.55;0.50;;;;;;;24.90;21.99;100390.15;1663693;85;21073;-71
2022/05/25 07:22:23;;;;;;;3.55;0.40;;;;;;;25.01;22.14;100387.06;1680498;85;21231;-71
2022/05/25 07:24:50;;;;;;;0.37;0.20;;;;;;;25.14;22.49;100388.34;1662173;86;21064;-71
2022/05/25 07:27:16;;;;;;;2.87;0.88;;;;;;;25.28;22.13;100386.35;1664173;86;21089;-73
2022/05/25 07:29:42;;;;;;;1.87;0.50;;;;;;;25.19;21.70;100386.14;1670781;85;21127;-74
2022/05/25 07:32:13;;;;;;;1.55;0.30;;;;;;;24.92;22.16;100377.88;1672043;85;21032;-74
2022/05/25 07:34:54;;;;;;;1.10;0.30;;;;;;;24.75;22.34;100377.43;1672752;85;21130;-73
2022/05/25 07:37:23;;;;;;;1.37;0.35;;;;;;;24.57;22.51;100376.19;1673015;85;21114;-71
2022/05/25 07:39:57;;;;;;;2.65;0.40;;;;;;;24.37;23.01;100374.34;1671827;86;21102;-73
2022/05/25 07:42:25;;;;;;;0.80;0.10;;;;;;;24.28;23.08;100376.30;1671254;85;21480;-70
2022/05/25 07:44:56;;;;;;;2.10;0.30;;;;;;;24.16;23.06;100379.87;1683457;85;21631;-72
2022/05/25 07:47:23;;;;;;;0.95;0.20;;;;;;;24.10;22.67;100391.88;1670088;85;21190;-72
2022/05/25 07:49:49;;;;;;;0.42;0.20;;;;;;;24.03;22.72;100387.27;1663640;85;21027;-74
2022/05/25 07:52:15;;;;;;;1.40;0.20;;;;;;;23.88;22.99;100391.68;1669795;86;21056;-70
2022/05/25 07:54:45;;;;;;;2.98;0.20;;;;;;;23.74;22.89;100378.33;1658012;86;21520;-74
2022/05/25 07:57:12;;;;;;;1.95;0.20;;;;;;;23.64;23.05;100380.53;1676458;84;21038;-75
2022/05/25 07:59:39;;;;;;;0.30;0.30;;;;;;;23.50;22.85;100384.89;1677684;84;21134;-72
2022/05/25 08:07:51;;;;;;;1.03;0.20;;;;;;;23.26;23.10;100379.18;1670601;85;21666;-70
2022/05/25 08:10:22;;;;;;;0.60;0.42;;;;;;;23.38;23.33;100379.73;1686408;85;21319;-73
2022/05/25 08:12:49;;;;;;;0.78;0.30;;;;;;;23.47;23.23;100390.34;1674792;84;21585;-71
2022/05/25 08:15:17;;;;;;;3.85;0.30;;;;;;;23.55;23.10;100385.44;1679476;85;21061;-71
2022/05/25 08:17:44;;;;;;;0.85;0.30;;;;;;;23.55;23.00;100385.44;1661139;85;21013;-71
2022/05/25 08:20:12;;;;;;;0.75;0.20;;;;;;;23.49;23.16;100386.80;1686623;85;21504;-71
2022/05/25 08:22:39;;;;;;;2.72;0.20;;;;;;;23.38;23.22;100382.45;1686312;85;21673;-74
2022/05/25 08:25:08;;;;;;;1.82;0.30;;;;;;;23.26;23.13;100388.70;1696567;84;21486;-73
2022/05/25 08:27:39;;;;;;;1.65;0.50;;;;;;;23.15;23.61;100388.42;1695605;84;21525;-72
2022/05/25 08:30:07;;;;;;;3.02;0.30;;;;;;;23.04;23.79;100387.06;1661719;85;21600;-72
2022/05/25 08:32:34;;;;;;;0.45;0.30;;;;;;;23.00;23.77;100383.23;1686482;85;21184;-72
2022/05/25 08:35:00;;;;;;;3.05;0.20;;;;;;;22.99;24.00;100388.38;1712561;83;21090;-73
2022/05/25 08:37:26;;;;;;;3.58;0.40;;;;;;;23.06;24.10;100382.17;1706646;84;21053;-72
2022/05/25 08:39:52;;;;;;;0.85;0.33;;;;;;;23.25;24.06;100381.09;1706848;84;21641;-72
2022/05/25 08:42:24;;;;;;;0.93;0.30;;;;;;;23.37;23.77;100380.81;1684331;84;21014;-70
2022/05/25 08:44:53;;;;;;;1.37;0.30;;;;;;;23.49;23.47;100389.52;1700943;84;21075;-70
2022/05/25 08:47:20;;;;;;;0.75;0.47;;;;;;;23.51;22.90;100393.33;1660141;85;21089;-73
2022/05/25 08:49:49;;;;;;;0.30;0.30;;;;;;;23.43;23.17;100389.27;1665913;85;21558;-77
2022/05/25 08:52:24;;;;;;;0.78;0.33;;;;;;;23.34;22.94;100384.09;1672191;85;21104;-71
2022/05/25 08:54:51;;;;;;;1.02;0.25;;;;;;;23.24;23.03;100386.80;1686238;85;21532;-70
2022/05/25 08:57:25;;;;;;;1.42;0.20;;;;;;;23.26;22.75;100381.38;1706731;83;21045;-72
2022/05/25 09:00:13;;;;;;;0.30;0.30;;;;;;;23.25;22.83;100382.45;1693019;84;21049;-74
2022/05/25 09:03:09;;;;;;;1.75;0.30;;;;;;;23.29;23.08;100374.56;1666797;85;21061;-75
2022/05/25 09:05:57;;;;;;;0.65;0.53;;;;;;;23.32;23.42;100369.95;1718379;83;21649;-73
2022/05/25 09:08:44;;;;;;;0.98;0.20;;;;;;;23.38;23.27;100381.09;1689068;85;21119;-72
2022/05/25 09:11:15;;;;;;;2.83;0.33;;;;;;;23.43;23.00;100372.94;1689205;83;21107;-71
2022/05/25 09:14:11;;;;;;;1.75;0.40;;;;;;;23.38;23.48;100373.48;1662786;85;21044;-75
2022/05/25 09:16:38;;;;;;;1.62;0.33;;;;;;;23.35;23.65;100372.66;1666717;86;21130;-73
2022/05/25 09:19:12;;;;;;;0.47;0.30;;;;;;;23.37;23.72;100368.57;1667632;86;21120;-72
2022/05/25 09:21:52;;;;;;;0.50;0.25;;;;;;;23.44;23.96;100370.47;1670883;86;21059;-70
2022/05/25 09:24:22;;;;;;;1.40;0.45;;;;;;;23.48;23.86;100372.11;1659007;85;21052;-73
2022/05/25 09:26:52;;;;;;;3.37;0.37;;;;;;;23.49;23.96;100365.59;1658829;86;21145;-72
2022/05/25 09:29:19;;;;;;;2.20;0.30;;;;;;;23.50;24.02;100355.77;1702321;83;21133;-71
2022/05/25 09:32:02;;;;;;;0.75;0.30;;;;;;;23.53;23.69;100355.79;1674705;85;21065;-72
2022/05/25 09:34:59;;;;;;;0.45;0.30;;;;;;;23.58;24.12;100353.59;1686249;85;21046;-72
2022/05/25 09:37:55;;;;;;;1.62;0.37;;;;;;;23.63;23.71;100353.59;1663809;85;21065;-71
2022/05/25 09:40:27;;;;;;;1.87;0.25;;;;;;;23.54;23.70;100350.60;1670004;85;21188;-74
2022/05/25 09:42:59;;;;;;;0.50;0.40;;;;;;;23.43;23.51;100346.27;1658981;85;21598;-71
2022/05/25 09:45:41;;;;;;;0.68;0.20;;;;;;;23.33;23.61;100356.06;1676250;85;21065;-72
2022/05/25 09:48:24;;;;;;;1.67;0.30;;;;;;;23.36;23.76;100357.44;1669836;86;21052;-71
2022/05/25 09:51:01;;;;;;;0.65;0.30;;;;;;;23.39;23.94;100347.35;1672076;85;21065;-72
2022/05/25 09:53:41;;;;;;;1.00;0.25;;;;;;;23.50;23.36;100353.05;1671184;86;21053;-72
2022/05/25 09:56:22;;;;;;;1.00;0.30;;;;;;;23.49;23.18;100353.35;1672373;83;21018;-70
2022/05/25 09:58:56;;;;;;;0.45;0.20;;;;;;;23.42;23.63;100348.17;1719800;83;21042;-73
2022/05/25 10:01:31;;;;;;;0.75;0.53;;;;;;;23.46;23.56;100354.70;1694108;83;21169;-71
2022/05/25 10:03:59;;;;;;;2.65;0.50;;;;;;;23.48;23.03;100350.34;1696025;84;21080;-71
2022/05/25 10:06:38;;;;;;;1.72;0.30;;;;;;;23.45;23.10;100350.88;1691937;84;21032;-72
2022/05/25 10:09:21;;;;;;;6.03;0.53;;;;;;;23.44;23.13;100349.27;1683816;84;21080;-71
2022/05/25 10:11:54;;;;;;;1.67;0.60;;;;;;;23.50;23.48;100346.80;1695738;84;21053;-71
2022/05/25 10:14:39;;;;;;;0.40;0.30;;;;;;;23.65;23.76;100336.44;1701454;84;21469;-72
2022/05/25 10:17:13;;;;;;;0.68;0.35;;;;;;;23.70;23.12;100343.24;1681624;84;21023;-72
2022/05/25 10:19:51;;;;;;;4.35;0.30;;;;;;;23.66;23.10;100340.25;1695583;84;20999;-74
2022/05/25 10:22:34;;;;;;;3.55;0.30;;;;;;;23.74;23.52;100338.87;1670453;83;21074;-71
2022/05/25 10:25:28;;;;;;;1.77;0.35;;;;;;;23.85;23.54;100335.61;1712095;83;21554;-74
2022/05/25 10:27:58;;;;;;;2.25;0.30;;;;;;;23.90;23.07;100324.16;1712853;83;21042;-71
2022/05/25 10:36:48;;;;;;;3.92;0.40;;;;;;;24.03;22.83;100325.45;1697458;84;21113;-73
2022/05/25 10:39:37;;;;;;;2.92;0.45;;;;;;;23.96;23.06;100320.04;1696550;84;21009;-71
2022/05/25 10:42:26;;;;;;;1.47;0.40;;;;;;;23.88;23.06;100314.63;1695529;84;21513;-72
2022/05/25 10:45:19;;;;;;;5.28;0.53;;;;;;;23.80;23.14;100318.73;1690674;84;21006;-72
2022/05/25 10:48:07;;;;;;;0.55;0.50;;;;;;;23.77;23.23;100306.20;1706377;84;21134;-73
2022/05/25 10:50:57;;;;;;;2.08;0.33;;;;;;;23.79;23.05;100306.23;1705885;83;22296;-75
2022/05/25 10:57:23;;;;;;;0.45;0.20;;;;;;;23.77;22.98;100298.88;1677422;84;21062;-72
2022/05/25 11:00:22;;;;;;;3.25;0.50;;;;;;;23.75;23.11;100301.03;1693043;84;21144;-71
2022/05/25 11:03:19;;;;;;;1.62;0.78;;;;;;;23.66;23.70;100301.35;1689608;84;21034;-72
2022/05/25 11:05:53;;;;;;;1.20;0.50;;;;;;;23.59;23.78;100300.82;1595758;88;21055;-71
2022/05/25 11:08:28;;;;;;;1.80;0.60;;;;;;;23.58;23.76;100295.09;1594953;88;21525;-70
2022/05/25 11:11:18;;;;;;;0.45;0.33;;;;;;;23.62;24.03;100297.53;1645252;84;21004;-70
2022/05/25 11:13:58;;;;;;;3.22;0.60;;;;;;;23.65;23.77;100299.70;1665119;84;21031;-71
2022/05/25 11:16:45;;;;;;;2.10;0.50;;;;;;;23.61;23.94;100293.20;1689214;84;21529;-69
2022/05/25 11:19:51;;;;;;;0.88;0.30;;;;;;;23.63;24.15;100293.73;1705740;84;21826;-72
2022/05/25 11:23:00;;;;;;;0.65;0.50;;;;;;;23.65;24.07;100274.67;1705404;84;21515;-72
2022/05/25 11:25:54;;;;;;;0.95;0.15;;;;;;;23.79;23.05;100291.80;1698549;84;21090;-72
2022/05/25 11:29:03;;;;;;;2.10;0.40;;;;;;;23.86;22.67;100287.69;1706183;83;20997;-74
2022/05/25 11:32:13;;;;;;;0.80;0.40;;;;;;;23.92;22.48;100275.42;1692067;84;21070;-72
2022/05/25 11:35:02;;;;;;;1.25;0.50;;;;;;;23.93;22.92;100273.78;1705069;84;21006;-74
2022/05/25 11:37:43;;;;;;;0.80;0.33;;;;;;;23.89;23.25;100280.33;1705449;83;21070;-73
2022/05/25 11:40:50;;;;;;;1.35;0.72;;;;;;;23.88;23.01;100274.64;1706407;83;21046;-70
2022/05/25 11:43:55;;;;;;;0.62;0.35;;;;;;;23.92;22.97;100277.59;1693055;84;21049;-74
2022/05/25 11:46:47;;;;;;;0.68;0.35;;;;;;;23.95;23.17;100275.68;1691256;84;21011;-73
2022/05/25 11:50:00;;;;;;;0.50;0.30;;;;;;;23.97;22.79;100281.66;1703181;84;21519;-69
2022/05/25 11:53:04;;;;;;;2.22;0.20;;;;;;;23.98;22.10;100277.86;1703376;84;21013;-73
2022/05/25 11:55:56;;;;;;;0.40;0.20;;;;;;;23.99;22.44;100274.58;1700584;83;21035;-71
2022/05/25 11:58:42;;;;;;;0.78;0.30;;;;;;;24.08;22.40;100272.91;1676567;85;21077;-71
2022/05/25 12:01:34;;;;;;;4.08;0.33;;;;;;;24.19;22.33;100275.84;1662819;84;21646;-75
2022/05/25 12:04:27;;;;;;;0.30;0.20;;;;;;;24.27;22.45;100265.70;1688437;83;21034;-71
2022/05/25 12:07:18;;;;;;;4.70;0.30;;;;;;;24.29;21.82;100264.88;1719325;83;21505;-72
2022/05/25 12:10:01;;;;;;;5.35;0.25;;;;;;;24.32;21.38;100269.48;1719910;83;21595;-72
2022/05/25 12:12:35;;;;;;;0.93;0.30;;;;;;;24.31;21.19;100260.52;1599987;88;21109;-72
2022/05/25 12:15:41;;;;;;;1.27;0.42;;;;;;;24.28;21.02;100256.45;1686814;84;21057;-74
2022/05/25 12:18:22;;;;;;;3.60;0.30;;;;;;;24.22;21.04;100254.03;1697403;84;21022;-71
2022/05/25 12:21:02;;;;;;;1.45;0.20;;;;;;;24.13;21.67;100249.74;1697252;84;21113;-72
2022/05/25 12:24:05;;;;;;;2.40;0.37;;;;;;;24.18;21.86;100252.97;1689210;84;21545;-71
2022/05/25 12:26:34;;;;;;;1.95;0.25;;;;;;;24.15;21.35;100248.08;1691168;84;21029;-75
2022/05/25 12:29:06;;;;;;;0.37;0.20;;;;;;;23.94;21.26;100247.37;1666662;85;21531;-72